sensor_id;sensor_type;location;lat;lon;timestamp;P1;durP1;ratioP1;P2;durP2;ratioP2
9729;SDS011;4904;49.152;11.004;2023-09-12T00:00:25;11.32;;;6.85;;
9729;SDS011;4904;49.152;11.004;2023-09-12T00:02:52;10.13;;;7.60;;
9729;SDS011;4904;49.152;11.004;2023-09-12T00:05:19;11.43;;;7.40;;
9729;SDS011;4904;49.152;11.004;2023-09-12T00:07:46;15.13;;;7.65;;
9729;SDS011;4904;49.152;11.004;2023-09-12T00:10:13;10.80;;;7.57;;
9729;SDS011;4904;49.152;11.004;2023-09-12T00:12:40;10.25;;;7.07;;
9729;SDS011;4904;49.152;11.004;2023-09-12T00:15:08;11.02;;;7.40;;
9729;SDS011;4904;49.152;11.004;2023-09-12T00:17:35;13.23;;;8.23;;
9729;SDS011;4904;49.152;11.004;2023-09-12T00:20:02;14.57;;;8.07;;
9729;SDS011;4904;49.152;11.004;2023-09-12T00:22:31;10.25;;;7.80;;
9729;SDS011;4904;49.152;11.004;2023-09-12T00:24:58;12.15;;;8.40;;
9729;SDS011;4904;49.152;11.004;2023-09-12T00:27:25;11.85;;;7.72;;
9729;SDS011;4904;49.152;11.004;2023-09-12T00:29:52;14.77;;;7.32;;
9729;SDS011;4904;49.152;11.004;2023-09-12T00:32:20;12.07;;;8.25;;
9729;SDS011;4904;49.152;11.004;2023-09-12T00:34:47;12.55;;;7.38;;
9729;SDS011;4904;49.152;11.004;2023-09-12T00:37:14;9.90;;;7.22;;
9729;SDS011;4904;49.152;11.004;2023-09-12T00:39:41;11.40;;;7.03;;
9729;SDS011;4904;49.152;11.004;2023-09-12T00:42:08;10.23;;;7.30;;
9729;SDS011;4904;49.152;11.004;2023-09-12T00:44:34;10.48;;;7.57;;
9729;SDS011;4904;49.152;11.004;2023-09-12T00:47:01;10.30;;;7.50;;
9729;SDS011;4904;49.152;11.004;2023-09-12T00:49:30;11.52;;;7.45;;
9729;SDS011;4904;49.152;11.004;2023-09-12T00:51:58;9.68;;;7.40;;
9729;SDS011;4904;49.152;11.004;2023-09-12T00:54:27;9.50;;;7.40;;
9729;SDS011;4904;49.152;11.004;2023-09-12T00:56:54;9.32;;;7.53;;
9729;SDS011;4904;49.152;11.004;2023-09-12T00:59:21;10.38;;;8.20;;
9729;SDS011;4904;49.152;11.004;2023-09-12T01:01:49;9.10;;;7.53;;
9729;SDS011;4904;49.152;11.004;2023-09-12T01:04:17;8.80;;;6.75;;
9729;SDS011;4904;49.152;11.004;2023-09-12T01:06:45;10.40;;;8.00;;
9729;SDS011;4904;49.152;11.004;2023-09-12T01:09:13;8.48;;;7.32;;
9729;SDS011;4904;49.152;11.004;2023-09-12T01:11:40;10.48;;;7.32;;
9729;SDS011;4904;49.152;11.004;2023-09-12T01:14:08;8.10;;;7.30;;
9729;SDS011;4904;49.152;11.004;2023-09-12T01:16:35;11.48;;;7.35;;
9729;SDS011;4904;49.152;11.004;2023-09-12T01:19:02;16.92;;;8.02;;
9729;SDS011;4904;49.152;11.004;2023-09-12T01:21:38;9.93;;;7.13;;
9729;SDS011;4904;49.152;11.004;2023-09-12T01:24:31;8.80;;;7.05;;
9729;SDS011;4904;49.152;11.004;2023-09-12T01:27:23;10.98;;;7.45;;
9729;SDS011;4904;49.152;11.004;2023-09-12T01:29:54;11.77;;;7.53;;
9729;SDS011;4904;49.152;11.004;2023-09-12T01:32:23;8.82;;;7.57;;
9729;SDS011;4904;49.152;11.004;2023-09-12T01:34:50;17.58;;;8.25;;
9729;SDS011;4904;49.152;11.004;2023-09-12T01:37:17;9.65;;;7.57;;
9729;SDS011;4904;49.152;11.004;2023-09-12T01:39:44;10.20;;;7.70;;
9729;SDS011;4904;49.152;11.004;2023-09-12T01:42:13;11.38;;;7.50;;
9729;SDS011;4904;49.152;11.004;2023-09-12T01:44:45;7.68;;;6.90;;
9729;SDS011;4904;49.152;11.004;2023-09-12T01:47:13;11.63;;;6.88;;
9729;SDS011;4904;49.152;11.004;2023-09-12T01:49:42;9.77;;;6.65;;
9729;SDS011;4904;49.152;11.004;2023-09-12T01:52:12;10.82;;;6.28;;
9729;SDS011;4904;49.152;11.004;2023-09-12T01:54:40;11.27;;;6.95;;
9729;SDS011;4904;49.152;11.004;2023-09-12T01:57:08;8.90;;;6.97;;
9729;SDS011;4904;49.152;11.004;2023-09-12T01:59:36;9.02;;;6.93;;
9729;SDS011;4904;49.152;11.004;2023-09-12T02:02:04;7.72;;;6.50;;
9729;SDS011;4904;49.152;11.004;2023-09-12T02:04:32;9.70;;;7.20;;
9729;SDS011;4904;49.152;11.004;2023-09-12T02:06:59;12.98;;;7.45;;
9729;SDS011;4904;49.152;11.004;2023-09-12T02:09:26;9.45;;;7.10;;
9729;SDS011;4904;49.152;11.004;2023-09-12T02:11:53;10.43;;;7.25;;
9729;SDS011;4904;49.152;11.004;2023-09-12T02:14:19;10.93;;;7.10;;
9729;SDS011;4904;49.152;11.004;2023-09-12T02:16:46;9.48;;;6.50;;
9729;SDS011;4904;49.152;11.004;2023-09-12T02:19:14;10.80;;;7.30;;
9729;SDS011;4904;49.152;11.004;2023-09-12T02:21:41;8.75;;;7.13;;
9729;SDS011;4904;49.152;11.004;2023-09-12T02:24:08;12.07;;;7.30;;
9729;SDS011;4904;49.152;11.004;2023-09-12T02:26:35;9.30;;;6.18;;
9729;SDS011;4904;49.152;11.004;2023-09-12T02:29:02;8.63;;;6.88;;
9729;SDS011;4904;49.152;11.004;2023-09-12T02:31:31;10.77;;;6.55;;
9729;SDS011;4904;49.152;11.004;2023-09-12T02:33:58;9.35;;;6.97;;
9729;SDS011;4904;49.152;11.004;2023-09-12T02:36:26;10.70;;;6.82;;
9729;SDS011;4904;49.152;11.004;2023-09-12T02:38:54;6.30;;;5.70;;
9729;SDS011;4904;49.152;11.004;2023-09-12T02:41:21;12.57;;;6.80;;
9729;SDS011;4904;49.152;11.004;2023-09-12T02:43:48;9.25;;;6.55;;
9729;SDS011;4904;49.152;11.004;2023-09-12T02:46:15;7.57;;;6.80;;
9729;SDS011;4904;49.152;11.004;2023-09-12T02:48:42;8.52;;;6.65;;
9729;SDS011;4904;49.152;11.004;2023-09-12T02:51:09;7.68;;;6.85;;
9729;SDS011;4904;49.152;11.004;2023-09-12T02:53:37;8.65;;;6.88;;
9729;SDS011;4904;49.152;11.004;2023-09-12T02:56:04;7.95;;;7.10;;
9729;SDS011;4904;49.152;11.004;2023-09-12T02:58:31;8.68;;;6.93;;
9729;SDS011;4904;49.152;11.004;2023-09-12T03:00:58;9.70;;;7.50;;
9729;SDS011;4904;49.152;11.004;2023-09-12T03:03:26;10.50;;;6.38;;
9729;SDS011;4904;49.152;11.004;2023-09-12T03:05:59;9.02;;;6.90;;
9729;SDS011;4904;49.152;11.004;2023-09-12T03:08:27;8.18;;;6.85;;
9729;SDS011;4904;49.152;11.004;2023-09-12T03:10:56;11.15;;;6.75;;
9729;SDS011;4904;49.152;11.004;2023-09-12T03:13:23;11.10;;;6.90;;
9729;SDS011;4904;49.152;11.004;2023-09-12T03:15:51;10.13;;;6.35;;
9729;SDS011;4904;49.152;11.004;2023-09-12T03:18:17;9.50;;;7.60;;
9729;SDS011;4904;49.152;11.004;2023-09-12T03:20:44;9.48;;;7.43;;
9729;SDS011;4904;49.152;11.004;2023-09-12T03:23:11;12.02;;;6.88;;
9729;SDS011;4904;49.152;11.004;2023-09-12T03:25:38;9.25;;;7.53;;
9729;SDS011;4904;49.152;11.004;2023-09-12T03:28:06;10.70;;;7.45;;
9729;SDS011;4904;49.152;11.004;2023-09-12T03:30:34;8.48;;;7.20;;
9729;SDS011;4904;49.152;11.004;2023-09-12T03:33:02;8.65;;;6.65;;
9729;SDS011;4904;49.152;11.004;2023-09-12T03:35:30;11.98;;;7.10;;
9729;SDS011;4904;49.152;11.004;2023-09-12T03:37:58;7.85;;;7.00;;
9729;SDS011;4904;49.152;11.004;2023-09-12T03:40:27;8.52;;;6.40;;
9729;SDS011;4904;49.152;11.004;2023-09-12T03:42:55;10.02;;;7.15;;
9729;SDS011;4904;49.152;11.004;2023-09-12T03:45:23;7.45;;;6.63;;
9729;SDS011;4904;49.152;11.004;2023-09-12T03:47:51;7.45;;;6.63;;
9729;SDS011;4904;49.152;11.004;2023-09-12T03:50:18;11.77;;;7.88;;
9729;SDS011;4904;49.152;11.004;2023-09-12T03:52:45;9.90;;;7.20;;
9729;SDS011;4904;49.152;11.004;2023-09-12T03:55:12;10.57;;;6.80;;
9729;SDS011;4904;49.152;11.004;2023-09-12T03:57:38;10.82;;;7.75;;
9729;SDS011;4904;49.152;11.004;2023-09-12T04:00:06;7.78;;;6.80;;
9729;SDS011;4904;49.152;11.004;2023-09-12T04:02:35;9.85;;;6.60;;
9729;SDS011;4904;49.152;11.004;2023-09-12T04:05:02;10.23;;;6.28;;
9729;SDS011;4904;49.152;11.004;2023-09-12T04:07:29;7.50;;;6.75;;
9729;SDS011;4904;49.152;11.004;2023-09-12T04:09:56;8.63;;;6.28;;
9729;SDS011;4904;49.152;11.004;2023-09-12T04:12:23;13.15;;;6.40;;
9729;SDS011;4904;49.152;11.004;2023-09-12T04:14:50;8.18;;;6.70;;
9729;SDS011;4904;49.152;11.004;2023-09-12T04:17:17;7.43;;;5.97;;
9729;SDS011;4904;49.152;11.004;2023-09-12T04:19:45;14.05;;;7.43;;
9729;SDS011;4904;49.152;11.004;2023-09-12T04:22:12;10.70;;;7.63;;
9729;SDS011;4904;49.152;11.004;2023-09-12T04:24:39;11.73;;;7.90;;
9729;SDS011;4904;49.152;11.004;2023-09-12T04:27:06;9.45;;;6.85;;
9729;SDS011;4904;49.152;11.004;2023-09-12T04:29:33;9.05;;;6.97;;
9729;SDS011;4904;49.152;11.004;2023-09-12T04:32:01;11.00;;;6.78;;
9729;SDS011;4904;49.152;11.004;2023-09-12T04:34:28;13.00;;;7.25;;
9729;SDS011;4904;49.152;11.004;2023-09-12T04:36:57;13.80;;;7.80;;
9729;SDS011;4904;49.152;11.004;2023-09-12T04:39:24;9.38;;;7.50;;
9729;SDS011;4904;49.152;11.004;2023-09-12T04:41:51;13.40;;;8.13;;
9729;SDS011;4904;49.152;11.004;2023-09-12T04:44:18;9.57;;;7.57;;
9729;SDS011;4904;49.152;11.004;2023-09-12T04:46:44;9.00;;;8.10;;
9729;SDS011;4904;49.152;11.004;2023-09-12T04:49:12;11.10;;;7.57;;
9729;SDS011;4904;49.152;11.004;2023-09-12T04:51:39;11.50;;;7.95;;
9729;SDS011;4904;49.152;11.004;2023-09-12T04:54:09;10.30;;;6.68;;
9729;SDS011;4904;49.152;11.004;2023-09-12T04:56:36;9.30;;;7.60;;
9729;SDS011;4904;49.152;11.004;2023-09-12T04:59:03;9.30;;;7.65;;
9729;SDS011;4904;49.152;11.004;2023-09-12T05:01:31;8.38;;;7.30;;
9729;SDS011;4904;49.152;11.004;2023-09-12T05:03:59;11.10;;;7.80;;
9729;SDS011;4904;49.152;11.004;2023-09-12T05:06:25;10.88;;;7.60;;
9729;SDS011;4904;49.152;11.004;2023-09-12T05:08:52;9.50;;;7.47;;
9729;SDS011;4904;49.152;11.004;2023-09-12T05:11:21;10.98;;;7.32;;
9729;SDS011;4904;49.152;11.004;2023-09-12T05:13:49;9.98;;;7.50;;
9729;SDS011;4904;49.152;11.004;2023-09-12T05:16:15;7.90;;;6.57;;
9729;SDS011;4904;49.152;11.004;2023-09-12T05:18:42;11.98;;;8.18;;
9729;SDS011;4904;49.152;11.004;2023-09-12T05:21:09;8.30;;;6.93;;
9729;SDS011;4904;49.152;11.004;2023-09-12T05:23:36;14.02;;;8.30;;
9729;SDS011;4904;49.152;11.004;2023-09-12T05:26:04;14.43;;;8.70;;
9729;SDS011;4904;49.152;11.004;2023-09-12T05:28:33;20.95;;;8.60;;
9729;SDS011;4904;49.152;11.004;2023-09-12T05:31:00;23.10;;;8.20;;
9729;SDS011;4904;49.152;11.004;2023-09-12T05:33:27;26.75;;;9.25;;
9729;SDS011;4904;49.152;11.004;2023-09-12T05:35:54;25.02;;;8.82;;
9729;SDS011;4904;49.152;11.004;2023-09-12T05:38:21;28.38;;;8.85;;
9729;SDS011;4904;49.152;11.004;2023-09-12T05:40:48;21.35;;;8.32;;
9729;SDS011;4904;49.152;11.004;2023-09-12T05:43:16;12.75;;;7.82;;
9729;SDS011;4904;49.152;11.004;2023-09-12T05:45:44;18.98;;;8.02;;
9729;SDS011;4904;49.152;11.004;2023-09-12T05:48:11;14.27;;;7.90;;
9729;SDS011;4904;49.152;11.004;2023-09-12T05:50:37;19.00;;;7.90;;
9729;SDS011;4904;49.152;11.004;2023-09-12T05:53:04;13.50;;;7.88;;
9729;SDS011;4904;49.152;11.004;2023-09-12T05:55:31;16.23;;;8.68;;
9729;SDS011;4904;49.152;11.004;2023-09-12T05:57:58;18.58;;;8.50;;
9729;SDS011;4904;49.152;11.004;2023-09-12T06:00:25;13.90;;;8.43;;
9729;SDS011;4904;49.152;11.004;2023-09-12T06:02:53;19.65;;;8.43;;
9729;SDS011;4904;49.152;11.004;2023-09-12T06:05:20;14.60;;;8.43;;
9729;SDS011;4904;49.152;11.004;2023-09-12T06:07:47;17.13;;;8.00;;
9729;SDS011;4904;49.152;11.004;2023-09-12T06:10:14;17.45;;;8.75;;
9729;SDS011;4904;49.152;11.004;2023-09-12T06:12:41;11.75;;;7.90;;
9729;SDS011;4904;49.152;11.004;2023-09-12T06:15:08;17.45;;;8.27;;
9729;SDS011;4904;49.152;11.004;2023-09-12T06:17:35;16.23;;;8.18;;
9729;SDS011;4904;49.152;11.004;2023-09-12T06:20:05;21.98;;;8.40;;
9729;SDS011;4904;49.152;11.004;2023-09-12T06:22:33;16.08;;;8.30;;
9729;SDS011;4904;49.152;11.004;2023-09-12T06:25:00;15.90;;;8.10;;
9729;SDS011;4904;49.152;11.004;2023-09-12T06:27:28;16.63;;;8.13;;
9729;SDS011;4904;49.152;11.004;2023-09-12T06:29:56;14.82;;;8.27;;
9729;SDS011;4904;49.152;11.004;2023-09-12T06:32:23;12.43;;;8.40;;
9729;SDS011;4904;49.152;11.004;2023-09-12T06:34:50;13.85;;;8.38;;
9729;SDS011;4904;49.152;11.004;2023-09-12T06:37:19;13.30;;;9.05;;
9729;SDS011;4904;49.152;11.004;2023-09-12T06:39:48;17.00;;;8.93;;
9729;SDS011;4904;49.152;11.004;2023-09-12T06:42:16;12.70;;;8.73;;
9729;SDS011;4904;49.152;11.004;2023-09-12T06:44:43;16.10;;;8.55;;
9729;SDS011;4904;49.152;11.004;2023-09-12T06:47:10;13.98;;;8.02;;
9729;SDS011;4904;49.152;11.004;2023-09-12T06:49:38;11.90;;;8.95;;
9729;SDS011;4904;49.152;11.004;2023-09-12T06:52:05;10.90;;;8.98;;
9729;SDS011;4904;49.152;11.004;2023-09-12T06:54:36;14.95;;;8.65;;
9729;SDS011;4904;49.152;11.004;2023-09-12T06:57:03;9.80;;;7.88;;
9729;SDS011;4904;49.152;11.004;2023-09-12T06:59:30;14.00;;;8.65;;
9729;SDS011;4904;49.152;11.004;2023-09-12T07:01:59;11.70;;;8.48;;
9729;SDS011;4904;49.152;11.004;2023-09-12T07:04:26;13.25;;;9.07;;
9729;SDS011;4904;49.152;11.004;2023-09-12T07:06:53;18.13;;;9.23;;
9729;SDS011;4904;49.152;11.004;2023-09-12T07:09:20;13.88;;;9.02;;
9729;SDS011;4904;49.152;11.004;2023-09-12T07:11:49;11.50;;;9.05;;
9729;SDS011;4904;49.152;11.004;2023-09-12T07:14:16;10.65;;;9.43;;
9729;SDS011;4904;49.152;11.004;2023-09-12T07:16:43;11.98;;;8.90;;
9729;SDS011;4904;49.152;11.004;2023-09-12T07:19:09;12.68;;;8.98;;
9729;SDS011;4904;49.152;11.004;2023-09-12T07:21:36;16.20;;;9.50;;
9729;SDS011;4904;49.152;11.004;2023-09-12T07:24:03;11.65;;;9.43;;
9729;SDS011;4904;49.152;11.004;2023-09-12T07:26:31;21.33;;;9.60;;
9729;SDS011;4904;49.152;11.004;2023-09-12T07:28:59;14.27;;;9.05;;
9729;SDS011;4904;49.152;11.004;2023-09-12T07:31:27;15.23;;;9.00;;
9729;SDS011;4904;49.152;11.004;2023-09-12T07:33:54;17.27;;;9.45;;
9729;SDS011;4904;49.152;11.004;2023-09-12T07:36:21;11.35;;;8.40;;
9729;SDS011;4904;49.152;11.004;2023-09-12T07:38:48;10.75;;;8.73;;
9729;SDS011;4904;49.152;11.004;2023-09-12T07:41:15;14.32;;;9.02;;
9729;SDS011;4904;49.152;11.004;2023-09-12T07:43:42;15.85;;;8.68;;
9729;SDS011;4904;49.152;11.004;2023-09-12T07:46:10;14.85;;;9.07;;
9729;SDS011;4904;49.152;11.004;2023-09-12T07:48:38;16.00;;;9.00;;
9729;SDS011;4904;49.152;11.004;2023-09-12T07:51:11;11.18;;;8.80;;
9729;SDS011;4904;49.152;11.004;2023-09-12T07:53:39;11.43;;;9.02;;
9729;SDS011;4904;49.152;11.004;2023-09-12T07:56:07;12.00;;;8.75;;
9729;SDS011;4904;49.152;11.004;2023-09-12T07:58:35;15.18;;;8.82;;
9729;SDS011;4904;49.152;11.004;2023-09-12T08:01:04;9.75;;;8.73;;
9729;SDS011;4904;49.152;11.004;2023-09-12T08:03:33;15.65;;;9.05;;
9729;SDS011;4904;49.152;11.004;2023-09-12T08:06:01;10.50;;;8.73;;
9729;SDS011;4904;49.152;11.004;2023-09-12T08:08:28;11.38;;;9.10;;
9729;SDS011;4904;49.152;11.004;2023-09-12T08:10:55;11.65;;;8.98;;
9729;SDS011;4904;49.152;11.004;2023-09-12T08:13:25;12.50;;;8.45;;
9729;SDS011;4904;49.152;11.004;2023-09-12T08:15:52;12.57;;;8.70;;
9729;SDS011;4904;49.152;11.004;2023-09-12T08:18:19;10.25;;;8.02;;
9729;SDS011;4904;49.152;11.004;2023-09-12T08:20:48;13.20;;;8.07;;
9729;SDS011;4904;49.152;11.004;2023-09-12T08:23:14;10.40;;;8.85;;
9729;SDS011;4904;49.152;11.004;2023-09-12T08:25:41;12.20;;;8.27;;
9729;SDS011;4904;49.152;11.004;2023-09-12T08:28:08;14.95;;;9.05;;
9729;SDS011;4904;49.152;11.004;2023-09-12T08:30:35;9.48;;;8.25;;
9729;SDS011;4904;49.152;11.004;2023-09-12T08:33:02;14.15;;;8.60;;
9729;SDS011;4904;49.152;11.004;2023-09-12T08:35:31;9.90;;;8.23;;
9729;SDS011;4904;49.152;11.004;2023-09-12T08:38:00;13.32;;;8.88;;
9729;SDS011;4904;49.152;11.004;2023-09-12T08:40:27;11.05;;;8.23;;
9729;SDS011;4904;49.152;11.004;2023-09-12T08:42:55;11.40;;;8.05;;
9729;SDS011;4904;49.152;11.004;2023-09-12T08:45:24;9.35;;;7.85;;
9729;SDS011;4904;49.152;11.004;2023-09-12T08:47:51;11.05;;;8.05;;
9729;SDS011;4904;49.152;11.004;2023-09-12T08:50:20;11.88;;;7.60;;
9729;SDS011;4904;49.152;11.004;2023-09-12T08:52:48;14.60;;;7.80;;
9729;SDS011;4904;49.152;11.004;2023-09-12T08:55:17;15.98;;;8.60;;
9729;SDS011;4904;49.152;11.004;2023-09-12T08:57:44;16.40;;;8.57;;
9729;SDS011;4904;49.152;11.004;2023-09-12T09:00:16;13.25;;;7.82;;
9729;SDS011;4904;49.152;11.004;2023-09-12T09:02:44;10.82;;;8.02;;
9729;SDS011;4904;49.152;11.004;2023-09-12T09:05:12;12.90;;;8.13;;
9729;SDS011;4904;49.152;11.004;2023-09-12T09:07:40;13.85;;;8.35;;
9729;SDS011;4904;49.152;11.004;2023-09-12T09:10:09;9.20;;;7.72;;
9729;SDS011;4904;49.152;11.004;2023-09-12T09:12:42;8.98;;;8.10;;
9729;SDS011;4904;49.152;11.004;2023-09-12T09:15:20;10.63;;;7.82;;
9729;SDS011;4904;49.152;11.004;2023-09-12T09:17:48;10.27;;;7.70;;
9729;SDS011;4904;49.152;11.004;2023-09-12T09:20:22;10.70;;;8.15;;
9729;SDS011;4904;49.152;11.004;2023-09-12T09:22:58;11.15;;;7.60;;
9729;SDS011;4904;49.152;11.004;2023-09-12T09:25:26;14.13;;;7.90;;
9729;SDS011;4904;49.152;11.004;2023-09-12T09:27:55;11.82;;;7.55;;
9729;SDS011;4904;49.152;11.004;2023-09-12T09:30:38;11.50;;;7.68;;
9729;SDS011;4904;49.152;11.004;2023-09-12T09:33:07;11.98;;;8.00;;
9729;SDS011;4904;49.152;11.004;2023-09-12T09:35:34;12.70;;;7.40;;
9729;SDS011;4904;49.152;11.004;2023-09-12T09:38:02;15.05;;;8.77;;
9729;SDS011;4904;49.152;11.004;2023-09-12T09:40:29;9.98;;;8.52;;
9729;SDS011;4904;49.152;11.004;2023-09-12T09:43:00;15.23;;;8.80;;
9729;SDS011;4904;49.152;11.004;2023-09-12T09:45:28;10.77;;;8.18;;
9729;SDS011;4904;49.152;11.004;2023-09-12T09:47:56;10.30;;;7.45;;
9729;SDS011;4904;49.152;11.004;2023-09-12T09:50:24;12.02;;;7.65;;
9729;SDS011;4904;49.152;11.004;2023-09-12T09:52:53;8.32;;;7.38;;
9729;SDS011;4904;49.152;11.004;2023-09-12T09:55:21;10.68;;;7.55;;
9729;SDS011;4904;49.152;11.004;2023-09-12T09:57:48;12.05;;;8.00;;
9729;SDS011;4904;49.152;11.004;2023-09-12T10:00:19;10.27;;;7.35;;
9729;SDS011;4904;49.152;11.004;2023-09-12T10:02:48;12.15;;;7.50;;
9729;SDS011;4904;49.152;11.004;2023-09-12T10:05:16;11.93;;;8.15;;
9729;SDS011;4904;49.152;11.004;2023-09-12T10:07:45;8.73;;;7.82;;
9729;SDS011;4904;49.152;11.004;2023-09-12T10:10:14;10.13;;;7.82;;
9729;SDS011;4904;49.152;11.004;2023-09-12T10:12:43;11.70;;;8.27;;
9729;SDS011;4904;49.152;11.004;2023-09-12T10:15:15;10.02;;;7.93;;
9729;SDS011;4904;49.152;11.004;2023-09-12T10:17:54;9.02;;;8.13;;
9729;SDS011;4904;49.152;11.004;2023-09-12T10:20:24;9.73;;;8.50;;
9729;SDS011;4904;49.152;11.004;2023-09-12T10:22:56;12.77;;;8.15;;
9729;SDS011;4904;49.152;11.004;2023-09-12T10:25:32;8.43;;;7.40;;
9729;SDS011;4904;49.152;11.004;2023-09-12T10:28:01;12.27;;;8.10;;
9729;SDS011;4904;49.152;11.004;2023-09-12T10:30:31;8.60;;;7.70;;
9729;SDS011;4904;49.152;11.004;2023-09-12T10:32:59;12.82;;;7.80;;
9729;SDS011;4904;49.152;11.004;2023-09-12T10:35:28;10.90;;;8.02;;
9729;SDS011;4904;49.152;11.004;2023-09-12T10:37:58;8.75;;;7.75;;
9729;SDS011;4904;49.152;11.004;2023-09-12T10:40:29;10.10;;;7.72;;
9729;SDS011;4904;49.152;11.004;2023-09-12T10:42:57;8.88;;;7.30;;
9729;SDS011;4904;49.152;11.004;2023-09-12T10:45:26;10.55;;;7.80;;
9729;SDS011;4904;49.152;11.004;2023-09-12T10:47:57;8.52;;;7.75;;
9729;SDS011;4904;49.152;11.004;2023-09-12T10:50:24;10.45;;;7.20;;
9729;SDS011;4904;49.152;11.004;2023-09-12T10:55:18;7.88;;;7.20;;
9729;SDS011;4904;49.152;11.004;2023-09-12T10:58:00;8.38;;;7.40;;
9729;SDS011;4904;49.152;11.004;2023-09-12T11:00:28;8.10;;;7.30;;
9729;SDS011;4904;49.152;11.004;2023-09-12T11:02:59;7.88;;;6.90;;
9729;SDS011;4904;49.152;11.004;2023-09-12T11:05:52;8.52;;;7.70;;
9729;SDS011;4904;49.152;11.004;2023-09-12T11:08:20;9.25;;;7.50;;
9729;SDS011;4904;49.152;11.004;2023-09-12T11:13:45;7.80;;;6.97;;
9729;SDS011;4904;49.152;11.004;2023-09-12T11:16:12;8.38;;;7.40;;
9729;SDS011;4904;49.152;11.004;2023-09-12T11:21:42;7.63;;;6.80;;
9729;SDS011;4904;49.152;11.004;2023-09-12T11:24:10;7.10;;;6.50;;
9729;SDS011;4904;49.152;11.004;2023-09-12T11:26:51;7.35;;;6.63;;
9729;SDS011;4904;49.152;11.004;2023-09-12T11:29:20;7.80;;;7.10;;
9729;SDS011;4904;49.152;11.004;2023-09-12T11:31:51;9.43;;;6.63;;
9729;SDS011;4904;49.152;11.004;2023-09-12T11:34:22;8.13;;;7.10;;
9729;SDS011;4904;49.152;11.004;2023-09-12T11:36:54;7.50;;;6.78;;
9729;SDS011;4904;49.152;11.004;2023-09-12T11:39:22;7.70;;;7.10;;
9729;SDS011;4904;49.152;11.004;2023-09-12T11:41:50;11.38;;;7.38;;
9729;SDS011;4904;49.152;11.004;2023-09-12T11:44:18;14.73;;;7.57;;
9729;SDS011;4904;49.152;11.004;2023-09-12T11:46:47;10.57;;;7.22;;
9729;SDS011;4904;49.152;11.004;2023-09-12T11:49:15;7.50;;;6.88;;
9729;SDS011;4904;49.152;11.004;2023-09-12T11:51:46;7.28;;;6.57;;
9729;SDS011;4904;49.152;11.004;2023-09-12T11:54:16;13.23;;;8.02;;
9729;SDS011;4904;49.152;11.004;2023-09-12T11:56:46;11.30;;;7.63;;
9729;SDS011;4904;49.152;11.004;2023-09-12T11:59:13;8.18;;;7.25;;
9729;SDS011;4904;49.152;11.004;2023-09-12T12:01:43;8.25;;;7.53;;
9729;SDS011;4904;49.152;11.004;2023-09-12T12:04:10;9.30;;;6.80;;
9729;SDS011;4904;49.152;11.004;2023-09-12T12:06:37;7.13;;;6.43;;
9729;SDS011;4904;49.152;11.004;2023-09-12T12:09:04;9.07;;;7.28;;
9729;SDS011;4904;49.152;11.004;2023-09-12T12:11:34;8.00;;;7.20;;
9729;SDS011;4904;49.152;11.004;2023-09-12T12:14:08;17.83;;;7.80;;
9729;SDS011;4904;49.152;11.004;2023-09-12T12:16:37;10.32;;;6.93;;
9729;SDS011;4904;49.152;11.004;2023-09-12T12:19:04;8.05;;;7.10;;
9729;SDS011;4904;49.152;11.004;2023-09-12T12:21:31;16.30;;;8.40;;
9729;SDS011;4904;49.152;11.004;2023-09-12T12:23:58;10.07;;;6.72;;
9729;SDS011;4904;49.152;11.004;2023-09-12T12:26:26;9.30;;;6.88;;
9729;SDS011;4904;49.152;11.004;2023-09-12T12:28:54;10.20;;;6.90;;
9729;SDS011;4904;49.152;11.004;2023-09-12T12:31:21;19.63;;;8.77;;
9729;SDS011;4904;49.152;11.004;2023-09-12T12:33:49;8.55;;;6.90;;
9729;SDS011;4904;49.152;11.004;2023-09-12T12:36:17;8.77;;;6.90;;
9729;SDS011;4904;49.152;11.004;2023-09-12T12:38:45;7.57;;;6.93;;
9729;SDS011;4904;49.152;11.004;2023-09-12T12:41:13;8.73;;;6.78;;
9729;SDS011;4904;49.152;11.004;2023-09-12T12:43:41;8.52;;;7.15;;
9729;SDS011;4904;49.152;11.004;2023-09-12T12:46:11;8.60;;;7.45;;
9729;SDS011;4904;49.152;11.004;2023-09-12T12:48:41;8.18;;;7.38;;
9729;SDS011;4904;49.152;11.004;2023-09-12T12:51:13;9.48;;;7.88;;
9729;SDS011;4904;49.152;11.004;2023-09-12T12:53:43;10.32;;;7.35;;
9729;SDS011;4904;49.152;11.004;2023-09-12T12:56:12;8.38;;;7.53;;
9729;SDS011;4904;49.152;11.004;2023-09-12T12:58:51;10.98;;;7.93;;
9729;SDS011;4904;49.152;11.004;2023-09-12T13:01:20;7.88;;;6.95;;
9729;SDS011;4904;49.152;11.004;2023-09-12T13:03:47;9.10;;;8.18;;
9729;SDS011;4904;49.152;11.004;2023-09-12T13:06:15;10.38;;;7.20;;
9729;SDS011;4904;49.152;11.004;2023-09-12T13:08:43;7.85;;;7.10;;
9729;SDS011;4904;49.152;11.004;2023-09-12T13:11:12;8.35;;;7.30;;
9729;SDS011;4904;49.152;11.004;2023-09-12T13:13:40;7.60;;;6.80;;
9729;SDS011;4904;49.152;11.004;2023-09-12T13:16:08;7.43;;;6.70;;
9729;SDS011;4904;49.152;11.004;2023-09-12T13:18:37;7.68;;;6.97;;
9729;SDS011;4904;49.152;11.004;2023-09-12T13:21:05;9.27;;;7.57;;
9729;SDS011;4904;49.152;11.004;2023-09-12T13:23:32;8.43;;;7.05;;
9729;SDS011;4904;49.152;11.004;2023-09-12T13:26:00;7.78;;;7.00;;
9729;SDS011;4904;49.152;11.004;2023-09-12T13:28:27;7.93;;;7.22;;
9729;SDS011;4904;49.152;11.004;2023-09-12T13:30:54;7.65;;;7.05;;
9729;SDS011;4904;49.152;11.004;2023-09-12T13:33:22;7.80;;;7.07;;
9729;SDS011;4904;49.152;11.004;2023-09-12T13:35:50;8.18;;;7.28;;
9729;SDS011;4904;49.152;11.004;2023-09-12T13:38:18;7.80;;;7.05;;
9729;SDS011;4904;49.152;11.004;2023-09-12T13:40:45;8.65;;;7.13;;
9729;SDS011;4904;49.152;11.004;2023-09-12T13:43:12;9.35;;;6.88;;
9729;SDS011;4904;49.152;11.004;2023-09-12T13:45:40;9.23;;;8.27;;
9729;SDS011;4904;49.152;11.004;2023-09-12T13:48:07;8.63;;;7.82;;
9729;SDS011;4904;49.152;11.004;2023-09-12T13:50:34;7.85;;;7.07;;
9729;SDS011;4904;49.152;11.004;2023-09-12T13:53:02;9.32;;;7.00;;
9729;SDS011;4904;49.152;11.004;2023-09-12T13:55:31;8.50;;;7.78;;
9729;SDS011;4904;49.152;11.004;2023-09-12T13:57:59;10.63;;;7.65;;
9729;SDS011;4904;49.152;11.004;2023-09-12T14:00:28;7.72;;;6.93;;
9729;SDS011;4904;49.152;11.004;2023-09-12T14:02:55;8.02;;;7.00;;
9729;SDS011;4904;49.152;11.004;2023-09-12T14:05:22;8.10;;;7.30;;
9729;SDS011;4904;49.152;11.004;2023-09-12T14:07:49;8.05;;;7.25;;
9729;SDS011;4904;49.152;11.004;2023-09-12T14:10:18;9.60;;;7.57;;
9729;SDS011;4904;49.152;11.004;2023-09-12T14:12:45;10.15;;;7.82;;
9729;SDS011;4904;49.152;11.004;2023-09-12T14:15:12;16.48;;;8.30;;
9729;SDS011;4904;49.152;11.004;2023-09-12T14:17:40;7.72;;;7.03;;
9729;SDS011;4904;49.152;11.004;2023-09-12T14:20:08;8.10;;;7.30;;
9729;SDS011;4904;49.152;11.004;2023-09-12T14:22:35;8.20;;;6.85;;
9729;SDS011;4904;49.152;11.004;2023-09-12T14:25:03;17.88;;;7.82;;
9729;SDS011;4904;49.152;11.004;2023-09-12T14:27:32;15.68;;;8.07;;
9729;SDS011;4904;49.152;11.004;2023-09-12T14:29:59;9.10;;;6.95;;
9729;SDS011;4904;49.152;11.004;2023-09-12T14:32:25;8.73;;;6.80;;
9729;SDS011;4904;49.152;11.004;2023-09-12T14:34:52;8.18;;;7.47;;
9729;SDS011;4904;49.152;11.004;2023-09-12T14:37:19;7.68;;;6.97;;
9729;SDS011;4904;49.152;11.004;2023-09-12T14:39:47;8.25;;;7.45;;
9729;SDS011;4904;49.152;11.004;2023-09-12T14:42:14;8.45;;;7.65;;
9729;SDS011;4904;49.152;11.004;2023-09-12T14:44:42;8.30;;;7.50;;
9729;SDS011;4904;49.152;11.004;2023-09-12T14:47:09;8.43;;;7.72;;
9729;SDS011;4904;49.152;11.004;2023-09-12T14:49:36;8.43;;;7.53;;
9729;SDS011;4904;49.152;11.004;2023-09-12T14:52:03;9.32;;;8.27;;
9729;SDS011;4904;49.152;11.004;2023-09-12T14:54:31;10.23;;;8.18;;
9729;SDS011;4904;49.152;11.004;2023-09-12T14:56:58;9.80;;;7.95;;
9729;SDS011;4904;49.152;11.004;2023-09-12T14:59:24;8.57;;;7.88;;
9729;SDS011;4904;49.152;11.004;2023-09-12T15:01:53;8.98;;;8.07;;
9729;SDS011;4904;49.152;11.004;2023-09-12T15:04:19;9.30;;;7.60;;
9729;SDS011;4904;49.152;11.004;2023-09-12T15:06:46;12.00;;;8.10;;